Bowmansville, New York
Current Conditions -  °F | °C
As of 2:54 AM on Sunday 23 Nov 2014 (Local Time) from KBUF Reporting Station
Overcast Overcast  
Wind Chill: 36°   Ceiling: 3200
Heat Index: 42°   Visibility: 10mi
Dew Point: 38°   Wind: 12mph
Humidity: 85%   Direction: 210°SSW
Pressure: 29.98"   Gusts: NA
Location:  42.94°N, 78.68°W
Report Text: KBUF 230754Z 21010KT 10SM FEW021 OVC032 06/03 A2998 RMK AO2 SLP160 RAB03E20 P0001 T00560033
Loading
Personal Weather Stations






























Interactive Weather Map New forecast layout! Learn more

10-Day Weather Forecast

Advertisements
Track Severe Weather on mobile